sensor_id;sensor_type;location;lat;lon;timestamp;P1;durP1;ratioP1;P2;durP2;ratioP2
6131;SDS011;3097;42.692;23.278;2024-02-28T00:02:23;30.53;;;15.83;;
6131;SDS011;3097;42.692;23.278;2024-02-28T00:04:49;30.43;;;15.43;;
6131;SDS011;3097;42.692;23.278;2024-02-28T00:07:14;28.40;;;14.80;;
6131;SDS011;3097;42.692;23.278;2024-02-28T00:09:40;28.47;;;14.50;;
6131;SDS011;3097;42.692;23.278;2024-02-28T00:12:05;29.47;;;15.70;;
6131;SDS011;3097;42.692;23.278;2024-02-28T00:14:31;28.10;;;15.73;;
6131;SDS011;3097;42.692;23.278;2024-02-28T00:16:57;31.13;;;16.37;;
6131;SDS011;3097;42.692;23.278;2024-02-28T00:19:23;32.67;;;16.43;;
6131;SDS011;3097;42.692;23.278;2024-02-28T00:21:50;28.70;;;15.40;;
6131;SDS011;3097;42.692;23.278;2024-02-28T00:24:15;31.20;;;16.80;;
6131;SDS011;3097;42.692;23.278;2024-02-28T00:26:41;29.60;;;16.00;;
6131;SDS011;3097;42.692;23.278;2024-02-28T00:29:08;33.73;;;17.07;;
6131;SDS011;3097;42.692;23.278;2024-02-28T00:31:34;32.30;;;16.80;;
6131;SDS011;3097;42.692;23.278;2024-02-28T00:33:59;29.40;;;16.60;;
6131;SDS011;3097;42.692;23.278;2024-02-28T00:36:25;32.60;;;17.23;;
6131;SDS011;3097;42.692;23.278;2024-02-28T00:38:51;40.47;;;18.30;;
6131;SDS011;3097;42.692;23.278;2024-02-28T00:41:16;40.27;;;20.93;;
6131;SDS011;3097;42.692;23.278;2024-02-28T00:43:42;37.67;;;21.40;;
6131;SDS011;3097;42.692;23.278;2024-02-28T00:46:07;42.73;;;20.43;;
6131;SDS011;3097;42.692;23.278;2024-02-28T00:48:37;37.00;;;20.20;;
6131;SDS011;3097;42.692;23.278;2024-02-28T00:51:03;40.87;;;19.80;;
6131;SDS011;3097;42.692;23.278;2024-02-28T00:53:29;40.37;;;20.40;;
6131;SDS011;3097;42.692;23.278;2024-02-28T00:55:54;36.13;;;20.13;;
6131;SDS011;3097;42.692;23.278;2024-02-28T00:58:20;36.47;;;20.10;;
6131;SDS011;3097;42.692;23.278;2024-02-28T01:00:47;48.40;;;22.53;;
6131;SDS011;3097;42.692;23.278;2024-02-28T01:03:13;42.63;;;22.03;;
6131;SDS011;3097;42.692;23.278;2024-02-28T01:05:40;43.47;;;23.73;;
6131;SDS011;3097;42.692;23.278;2024-02-28T01:08:07;48.17;;;23.43;;
6131;SDS011;3097;42.692;23.278;2024-02-28T01:10:33;43.73;;;22.87;;
6131;SDS011;3097;42.692;23.278;2024-02-28T01:12:59;43.77;;;22.80;;
6131;SDS011;3097;42.692;23.278;2024-02-28T01:15:25;40.17;;;22.67;;
6131;SDS011;3097;42.692;23.278;2024-02-28T01:17:50;41.40;;;21.80;;
6131;SDS011;3097;42.692;23.278;2024-02-28T01:20:16;36.53;;;21.63;;
6131;SDS011;3097;42.692;23.278;2024-02-28T01:22:41;40.80;;;22.53;;
6131;SDS011;3097;42.692;23.278;2024-02-28T01:25:07;39.80;;;22.90;;
6131;SDS011;3097;42.692;23.278;2024-02-28T01:27:33;39.17;;;21.37;;
6131;SDS011;3097;42.692;23.278;2024-02-28T01:29:59;40.70;;;22.33;;
6131;SDS011;3097;42.692;23.278;2024-02-28T01:32:24;43.20;;;22.37;;
6131;SDS011;3097;42.692;23.278;2024-02-28T01:34:50;45.27;;;21.63;;
6131;SDS011;3097;42.692;23.278;2024-02-28T01:37:15;43.10;;;22.00;;
6131;SDS011;3097;42.692;23.278;2024-02-28T01:39:41;40.70;;;21.73;;
6131;SDS011;3097;42.692;23.278;2024-02-28T01:42:07;42.17;;;21.90;;
6131;SDS011;3097;42.692;23.278;2024-02-28T01:44:33;40.70;;;21.00;;
6131;SDS011;3097;42.692;23.278;2024-02-28T01:47:06;45.10;;;21.40;;
6131;SDS011;3097;42.692;23.278;2024-02-28T01:49:31;39.83;;;20.10;;
6131;SDS011;3097;42.692;23.278;2024-02-28T01:51:57;39.53;;;19.63;;
6131;SDS011;3097;42.692;23.278;2024-02-28T01:54:23;37.07;;;20.30;;
6131;SDS011;3097;42.692;23.278;2024-02-28T01:56:49;37.33;;;19.87;;
6131;SDS011;3097;42.692;23.278;2024-02-28T01:59:15;35.87;;;19.23;;
6131;SDS011;3097;42.692;23.278;2024-02-28T02:01:42;38.10;;;19.67;;
6131;SDS011;3097;42.692;23.278;2024-02-28T02:04:08;36.87;;;19.03;;
6131;SDS011;3097;42.692;23.278;2024-02-28T02:06:34;45.60;;;18.73;;
6131;SDS011;3097;42.692;23.278;2024-02-28T02:09:03;36.97;;;20.00;;
6131;SDS011;3097;42.692;23.278;2024-02-28T02:11:29;36.43;;;19.33;;
6131;SDS011;3097;42.692;23.278;2024-02-28T02:13:54;36.47;;;19.40;;
6131;SDS011;3097;42.692;23.278;2024-02-28T02:16:20;36.93;;;19.00;;
6131;SDS011;3097;42.692;23.278;2024-02-28T02:18:51;37.53;;;20.87;;
6131;SDS011;3097;42.692;23.278;2024-02-28T02:21:17;50.63;;;22.20;;
6131;SDS011;3097;42.692;23.278;2024-02-28T02:23:45;42.77;;;21.70;;
6131;SDS011;3097;42.692;23.278;2024-02-28T02:26:10;40.77;;;21.30;;
6131;SDS011;3097;42.692;23.278;2024-02-28T02:28:36;42.20;;;21.73;;
6131;SDS011;3097;42.692;23.278;2024-02-28T02:31:01;39.47;;;20.50;;
6131;SDS011;3097;42.692;23.278;2024-02-28T02:33:27;45.20;;;21.67;;
6131;SDS011;3097;42.692;23.278;2024-02-28T02:35:53;47.53;;;22.17;;
6131;SDS011;3097;42.692;23.278;2024-02-28T02:38:18;43.63;;;22.40;;
6131;SDS011;3097;42.692;23.278;2024-02-28T02:40:49;46.00;;;22.47;;
6131;SDS011;3097;42.692;23.278;2024-02-28T02:43:15;40.83;;;20.80;;
6131;SDS011;3097;42.692;23.278;2024-02-28T02:45:41;45.27;;;20.33;;
6131;SDS011;3097;42.692;23.278;2024-02-28T02:48:06;39.13;;;20.43;;
6131;SDS011;3097;42.692;23.278;2024-02-28T02:50:32;40.27;;;22.43;;
6131;SDS011;3097;42.692;23.278;2024-02-28T02:52:57;40.23;;;20.87;;
6131;SDS011;3097;42.692;23.278;2024-02-28T02:55:23;44.60;;;21.13;;
6131;SDS011;3097;42.692;23.278;2024-02-28T02:57:48;36.70;;;21.03;;
6131;SDS011;3097;42.692;23.278;2024-02-28T03:00:14;40.10;;;21.57;;
6131;SDS011;3097;42.692;23.278;2024-02-28T03:02:40;39.63;;;21.17;;
6131;SDS011;3097;42.692;23.278;2024-02-28T03:05:05;41.80;;;21.13;;
6131;SDS011;3097;42.692;23.278;2024-02-28T03:07:31;36.53;;;19.80;;
6131;SDS011;3097;42.692;23.278;2024-02-28T03:09:57;41.90;;;20.20;;
6131;SDS011;3097;42.692;23.278;2024-02-28T03:12:23;36.80;;;20.43;;
6131;SDS011;3097;42.692;23.278;2024-02-28T03:14:49;41.03;;;20.63;;
6131;SDS011;3097;42.692;23.278;2024-02-28T03:17:14;35.97;;;20.43;;
6131;SDS011;3097;42.692;23.278;2024-02-28T03:19:40;38.77;;;20.23;;
6131;SDS011;3097;42.692;23.278;2024-02-28T03:22:07;38.13;;;19.60;;
6131;SDS011;3097;42.692;23.278;2024-02-28T03:24:32;37.50;;;19.63;;
6131;SDS011;3097;42.692;23.278;2024-02-28T03:27:01;37.57;;;20.40;;
6131;SDS011;3097;42.692;23.278;2024-02-28T03:29:30;36.20;;;20.13;;
6131;SDS011;3097;42.692;23.278;2024-02-28T03:31:56;32.53;;;19.30;;
6131;SDS011;3097;42.692;23.278;2024-02-28T03:34:23;38.70;;;20.77;;
6131;SDS011;3097;42.692;23.278;2024-02-28T03:36:49;38.30;;;21.27;;
6131;SDS011;3097;42.692;23.278;2024-02-28T03:39:15;38.40;;;21.27;;
6131;SDS011;3097;42.692;23.278;2024-02-28T03:41:41;35.93;;;19.47;;
6131;SDS011;3097;42.692;23.278;2024-02-28T03:44:07;39.10;;;20.63;;
6131;SDS011;3097;42.692;23.278;2024-02-28T03:46:33;38.47;;;20.90;;
6131;SDS011;3097;42.692;23.278;2024-02-28T03:48:59;40.33;;;21.40;;
6131;SDS011;3097;42.692;23.278;2024-02-28T03:51:24;41.97;;;20.90;;
6131;SDS011;3097;42.692;23.278;2024-02-28T03:53:50;40.53;;;22.83;;
6131;SDS011;3097;42.692;23.278;2024-02-28T03:56:25;44.70;;;22.97;;
6131;SDS011;3097;42.692;23.278;2024-02-28T03:58:51;48.57;;;24.13;;
6131;SDS011;3097;42.692;23.278;2024-02-28T04:01:17;44.13;;;23.00;;
6131;SDS011;3097;42.692;23.278;2024-02-28T04:03:44;45.47;;;23.63;;
6131;SDS011;3097;42.692;23.278;2024-02-28T04:06:10;49.20;;;25.50;;
6131;SDS011;3097;42.692;23.278;2024-02-28T04:08:36;54.50;;;25.83;;
6131;SDS011;3097;42.692;23.278;2024-02-28T04:11:01;54.97;;;29.17;;
6131;SDS011;3097;42.692;23.278;2024-02-28T04:13:27;59.40;;;30.87;;
6131;SDS011;3097;42.692;23.278;2024-02-28T04:15:53;72.90;;;32.90;;
6131;SDS011;3097;42.692;23.278;2024-02-28T04:18:18;74.87;;;32.43;;
6131;SDS011;3097;42.692;23.278;2024-02-28T04:20:44;62.87;;;32.47;;
6131;SDS011;3097;42.692;23.278;2024-02-28T04:23:09;74.87;;;32.50;;
6131;SDS011;3097;42.692;23.278;2024-02-28T04:25:35;63.20;;;31.83;;
6131;SDS011;3097;42.692;23.278;2024-02-28T04:28:01;66.00;;;32.60;;
6131;SDS011;3097;42.692;23.278;2024-02-28T04:30:27;71.00;;;31.70;;
6131;SDS011;3097;42.692;23.278;2024-02-28T04:32:53;68.63;;;33.20;;
6131;SDS011;3097;42.692;23.278;2024-02-28T04:35:18;67.03;;;33.20;;
6131;SDS011;3097;42.692;23.278;2024-02-28T04:37:45;67.50;;;32.90;;
6131;SDS011;3097;42.692;23.278;2024-02-28T04:40:11;69.77;;;33.60;;
6131;SDS011;3097;42.692;23.278;2024-02-28T04:42:37;63.73;;;31.93;;
6131;SDS011;3097;42.692;23.278;2024-02-28T04:45:03;63.33;;;32.17;;
6131;SDS011;3097;42.692;23.278;2024-02-28T04:47:29;64.27;;;30.70;;
6131;SDS011;3097;42.692;23.278;2024-02-28T04:49:56;62.30;;;30.30;;
6131;SDS011;3097;42.692;23.278;2024-02-28T04:52:21;64.03;;;31.77;;
6131;SDS011;3097;42.692;23.278;2024-02-28T04:54:47;81.20;;;33.57;;
6131;SDS011;3097;42.692;23.278;2024-02-28T04:57:13;100.53;;;38.90;;
6131;SDS011;3097;42.692;23.278;2024-02-28T04:59:38;101.40;;;38.97;;
6131;SDS011;3097;42.692;23.278;2024-02-28T05:02:04;92.50;;;39.60;;
6131;SDS011;3097;42.692;23.278;2024-02-28T05:04:30;97.63;;;38.80;;
6131;SDS011;3097;42.692;23.278;2024-02-28T05:06:55;99.73;;;38.07;;
6131;SDS011;3097;42.692;23.278;2024-02-28T05:09:21;93.33;;;37.03;;
6131;SDS011;3097;42.692;23.278;2024-02-28T05:11:49;94.67;;;36.33;;
6131;SDS011;3097;42.692;23.278;2024-02-28T05:14:15;96.63;;;36.53;;
6131;SDS011;3097;42.692;23.278;2024-02-28T05:16:40;98.63;;;40.77;;
6131;SDS011;3097;42.692;23.278;2024-02-28T05:19:06;92.93;;;39.50;;
6131;SDS011;3097;42.692;23.278;2024-02-28T05:21:31;86.57;;;38.27;;
6131;SDS011;3097;42.692;23.278;2024-02-28T05:24:04;79.40;;;37.47;;
6131;SDS011;3097;42.692;23.278;2024-02-28T05:26:30;84.43;;;38.93;;
6131;SDS011;3097;42.692;23.278;2024-02-28T05:28:58;83.03;;;41.00;;
6131;SDS011;3097;42.692;23.278;2024-02-28T05:31:24;87.27;;;40.10;;
6131;SDS011;3097;42.692;23.278;2024-02-28T05:33:51;79.57;;;38.57;;
6131;SDS011;3097;42.692;23.278;2024-02-28T05:36:19;93.13;;;41.13;;
6131;SDS011;3097;42.692;23.278;2024-02-28T05:38:47;83.47;;;40.17;;
6131;SDS011;3097;42.692;23.278;2024-02-28T05:41:13;87.43;;;41.67;;
6131;SDS011;3097;42.692;23.278;2024-02-28T05:43:40;81.83;;;39.80;;
6131;SDS011;3097;42.692;23.278;2024-02-28T05:46:06;81.73;;;38.87;;
6131;SDS011;3097;42.692;23.278;2024-02-28T05:48:31;80.37;;;39.27;;
6131;SDS011;3097;42.692;23.278;2024-02-28T05:50:57;83.40;;;40.63;;
6131;SDS011;3097;42.692;23.278;2024-02-28T05:53:22;82.33;;;39.27;;
6131;SDS011;3097;42.692;23.278;2024-02-28T05:55:52;90.03;;;41.37;;
6131;SDS011;3097;42.692;23.278;2024-02-28T05:58:18;99.93;;;46.70;;
6131;SDS011;3097;42.692;23.278;2024-02-28T06:00:44;98.17;;;45.93;;
6131;SDS011;3097;42.692;23.278;2024-02-28T06:03:10;101.23;;;45.03;;
6131;SDS011;3097;42.692;23.278;2024-02-28T06:05:35;100.83;;;45.13;;
6131;SDS011;3097;42.692;23.278;2024-02-28T06:08:01;135.17;;;58.67;;
6131;SDS011;3097;42.692;23.278;2024-02-28T06:10:26;134.57;;;58.00;;
6131;SDS011;3097;42.692;23.278;2024-02-28T06:12:52;126.03;;;55.50;;
6131;SDS011;3097;42.692;23.278;2024-02-28T06:15:18;125.90;;;52.43;;
6131;SDS011;3097;42.692;23.278;2024-02-28T06:17:43;116.00;;;52.90;;
6131;SDS011;3097;42.692;23.278;2024-02-28T06:20:09;105.63;;;50.27;;
6131;SDS011;3097;42.692;23.278;2024-02-28T06:22:35;85.23;;;42.73;;
6131;SDS011;3097;42.692;23.278;2024-02-28T06:25:00;72.57;;;34.27;;
6131;SDS011;3097;42.692;23.278;2024-02-28T06:27:26;71.43;;;33.67;;
6131;SDS011;3097;42.692;23.278;2024-02-28T06:29:52;53.90;;;27.00;;
6131;SDS011;3097;42.692;23.278;2024-02-28T06:32:17;53.00;;;28.77;;
6131;SDS011;3097;42.692;23.278;2024-02-28T06:34:43;58.63;;;27.83;;
6131;SDS011;3097;42.692;23.278;2024-02-28T06:37:08;49.50;;;25.13;;
6131;SDS011;3097;42.692;23.278;2024-02-28T06:39:34;53.97;;;27.77;;
6131;SDS011;3097;42.692;23.278;2024-02-28T06:42:00;59.53;;;28.70;;
6131;SDS011;3097;42.692;23.278;2024-02-28T06:44:25;53.97;;;28.23;;
6131;SDS011;3097;42.692;23.278;2024-02-28T06:46:51;55.07;;;28.30;;
6131;SDS011;3097;42.692;23.278;2024-02-28T06:49:16;54.77;;;27.10;;
6131;SDS011;3097;42.692;23.278;2024-02-28T06:51:44;54.83;;;28.27;;
6131;SDS011;3097;42.692;23.278;2024-02-28T06:54:10;55.83;;;27.73;;
6131;SDS011;3097;42.692;23.278;2024-02-28T06:56:36;55.80;;;27.80;;
6131;SDS011;3097;42.692;23.278;2024-02-28T06:59:01;60.63;;;28.23;;
6131;SDS011;3097;42.692;23.278;2024-02-28T07:01:27;50.70;;;27.47;;
6131;SDS011;3097;42.692;23.278;2024-02-28T07:03:53;51.43;;;25.83;;
6131;SDS011;3097;42.692;23.278;2024-02-28T07:06:18;47.23;;;26.43;;
6131;SDS011;3097;42.692;23.278;2024-02-28T07:08:44;61.27;;;24.23;;
6131;SDS011;3097;42.692;23.278;2024-02-28T07:11:15;44.53;;;24.33;;
6131;SDS011;3097;42.692;23.278;2024-02-28T07:13:41;45.83;;;22.87;;
6131;SDS011;3097;42.692;23.278;2024-02-28T07:16:06;36.07;;;20.07;;
6131;SDS011;3097;42.692;23.278;2024-02-28T07:18:32;30.67;;;19.17;;
6131;SDS011;3097;42.692;23.278;2024-02-28T07:20:58;31.33;;;19.00;;
6131;SDS011;3097;42.692;23.278;2024-02-28T07:23:24;31.73;;;19.33;;
6131;SDS011;3097;42.692;23.278;2024-02-28T07:25:50;38.60;;;20.53;;
6131;SDS011;3097;42.692;23.278;2024-02-28T07:28:16;33.90;;;19.80;;
6131;SDS011;3097;42.692;23.278;2024-02-28T07:30:41;31.63;;;20.07;;
6131;SDS011;3097;42.692;23.278;2024-02-28T07:33:09;33.20;;;19.27;;
6131;SDS011;3097;42.692;23.278;2024-02-28T07:35:44;36.87;;;20.90;;
6131;SDS011;3097;42.692;23.278;2024-02-28T07:38:12;34.70;;;19.53;;
6131;SDS011;3097;42.692;23.278;2024-02-28T07:40:38;32.93;;;19.70;;
6131;SDS011;3097;42.692;23.278;2024-02-28T07:43:04;34.77;;;19.57;;
6131;SDS011;3097;42.692;23.278;2024-02-28T07:45:29;29.37;;;19.43;;
6131;SDS011;3097;42.692;23.278;2024-02-28T07:47:55;31.47;;;19.40;;
6131;SDS011;3097;42.692;23.278;2024-02-28T07:50:20;30.77;;;18.50;;
6131;SDS011;3097;42.692;23.278;2024-02-28T07:52:46;33.50;;;20.87;;
6131;SDS011;3097;42.692;23.278;2024-02-28T07:55:11;32.27;;;20.47;;
6131;SDS011;3097;42.692;23.278;2024-02-28T07:57:37;26.57;;;18.83;;
6131;SDS011;3097;42.692;23.278;2024-02-28T08:00:03;32.67;;;19.57;;
6131;SDS011;3097;42.692;23.278;2024-02-28T08:02:29;28.73;;;19.93;;
6131;SDS011;3097;42.692;23.278;2024-02-28T08:04:54;29.50;;;19.40;;
6131;SDS011;3097;42.692;23.278;2024-02-28T08:07:20;32.93;;;21.00;;
6131;SDS011;3097;42.692;23.278;2024-02-28T08:09:46;31.27;;;19.73;;
6131;SDS011;3097;42.692;23.278;2024-02-28T08:12:12;30.47;;;20.07;;
6131;SDS011;3097;42.692;23.278;2024-02-28T08:14:37;36.17;;;22.77;;
6131;SDS011;3097;42.692;23.278;2024-02-28T08:17:03;33.10;;;20.50;;
6131;SDS011;3097;42.692;23.278;2024-02-28T08:19:28;31.80;;;20.27;;
6131;SDS011;3097;42.692;23.278;2024-02-28T08:21:54;33.77;;;22.07;;
6131;SDS011;3097;42.692;23.278;2024-02-28T08:24:19;31.93;;;20.87;;
6131;SDS011;3097;42.692;23.278;2024-02-28T08:26:45;30.97;;;21.03;;
6131;SDS011;3097;42.692;23.278;2024-02-28T08:29:10;35.00;;;20.80;;
6131;SDS011;3097;42.692;23.278;2024-02-28T08:31:39;31.47;;;20.03;;
6131;SDS011;3097;42.692;23.278;2024-02-28T08:34:06;30.87;;;20.63;;
6131;SDS011;3097;42.692;23.278;2024-02-28T08:36:32;30.47;;;20.80;;
6131;SDS011;3097;42.692;23.278;2024-02-28T08:38:57;33.07;;;20.70;;
6131;SDS011;3097;42.692;23.278;2024-02-28T08:41:23;30.20;;;20.27;;
6131;SDS011;3097;42.692;23.278;2024-02-28T08:43:48;32.47;;;20.33;;
6131;SDS011;3097;42.692;23.278;2024-02-28T08:46:14;32.40;;;19.70;;
6131;SDS011;3097;42.692;23.278;2024-02-28T08:48:41;35.57;;;21.63;;
6131;SDS011;3097;42.692;23.278;2024-02-28T08:51:07;34.37;;;20.97;;
6131;SDS011;3097;42.692;23.278;2024-02-28T08:53:33;36.30;;;21.27;;
6131;SDS011;3097;42.692;23.278;2024-02-28T08:55:58;30.60;;;20.53;;
6131;SDS011;3097;42.692;23.278;2024-02-28T08:58:24;29.37;;;19.03;;
6131;SDS011;3097;42.692;23.278;2024-02-28T09:00:50;29.60;;;19.87;;
6131;SDS011;3097;42.692;23.278;2024-02-28T09:03:16;31.00;;;20.00;;
6131;SDS011;3097;42.692;23.278;2024-02-28T09:05:41;29.13;;;20.00;;
6131;SDS011;3097;42.692;23.278;2024-02-28T09:08:07;32.67;;;20.03;;
6131;SDS011;3097;42.692;23.278;2024-02-28T09:10:33;31.10;;;18.80;;
6131;SDS011;3097;42.692;23.278;2024-02-28T09:12:59;35.10;;;21.00;;
6131;SDS011;3097;42.692;23.278;2024-02-28T09:15:25;34.67;;;19.47;;
6131;SDS011;3097;42.692;23.278;2024-02-28T09:17:50;33.27;;;20.40;;
6131;SDS011;3097;42.692;23.278;2024-02-28T09:20:16;35.97;;;20.40;;
6131;SDS011;3097;42.692;23.278;2024-02-28T09:22:42;35.27;;;19.90;;
6131;SDS011;3097;42.692;23.278;2024-02-28T09:25:07;27.93;;;19.07;;
6131;SDS011;3097;42.692;23.278;2024-02-28T09:27:34;33.57;;;20.13;;
6131;SDS011;3097;42.692;23.278;2024-02-28T09:30:02;34.80;;;20.87;;
6131;SDS011;3097;42.692;23.278;2024-02-28T09:32:28;32.67;;;20.53;;
6131;SDS011;3097;42.692;23.278;2024-02-28T09:34:54;33.90;;;20.00;;
6131;SDS011;3097;42.692;23.278;2024-02-28T09:37:19;31.50;;;19.97;;
6131;SDS011;3097;42.692;23.278;2024-02-28T09:39:49;31.93;;;19.70;;
6131;SDS011;3097;42.692;23.278;2024-02-28T09:42:15;33.10;;;18.97;;
6131;SDS011;3097;42.692;23.278;2024-02-28T09:44:40;26.67;;;17.70;;
6131;SDS011;3097;42.692;23.278;2024-02-28T09:47:08;29.57;;;18.30;;
6131;SDS011;3097;42.692;23.278;2024-02-28T09:49:33;27.43;;;17.20;;
6131;SDS011;3097;42.692;23.278;2024-02-28T09:52:02;26.23;;;16.97;;
6131;SDS011;3097;42.692;23.278;2024-02-28T09:54:28;24.07;;;15.83;;
6131;SDS011;3097;42.692;23.278;2024-02-28T09:56:54;30.60;;;16.37;;
6131;SDS011;3097;42.692;23.278;2024-02-28T09:59:20;24.20;;;15.50;;
6131;SDS011;3097;42.692;23.278;2024-02-28T10:01:59;26.47;;;16.47;;
6131;SDS011;3097;42.692;23.278;2024-02-28T10:04:25;24.73;;;16.30;;
6131;SDS011;3097;42.692;23.278;2024-02-28T10:06:52;30.47;;;17.43;;
6131;SDS011;3097;42.692;23.278;2024-02-28T10:09:18;26.57;;;16.33;;
6131;SDS011;3097;42.692;23.278;2024-02-28T10:11:44;29.43;;;16.07;;
6131;SDS011;3097;42.692;23.278;2024-02-28T10:14:11;25.70;;;16.20;;
6131;SDS011;3097;42.692;23.278;2024-02-28T10:16:42;27.07;;;16.90;;
6131;SDS011;3097;42.692;23.278;2024-02-28T10:19:07;25.87;;;15.67;;
6131;SDS011;3097;42.692;23.278;2024-02-28T10:21:33;23.43;;;15.50;;
6131;SDS011;3097;42.692;23.278;2024-02-28T10:23:59;24.47;;;15.70;;
6131;SDS011;3097;42.692;23.278;2024-02-28T10:26:24;27.33;;;15.70;;
6131;SDS011;3097;42.692;23.278;2024-02-28T10:28:50;28.70;;;15.37;;
6131;SDS011;3097;42.692;23.278;2024-02-28T10:31:16;29.17;;;16.83;;
6131;SDS011;3097;42.692;23.278;2024-02-28T10:33:42;24.60;;;16.00;;
6131;SDS011;3097;42.692;23.278;2024-02-28T10:36:07;24.10;;;15.60;;
6131;SDS011;3097;42.692;23.278;2024-02-28T10:38:34;22.97;;;14.83;;
6131;SDS011;3097;42.692;23.278;2024-02-28T10:41:02;25.77;;;15.67;;
6131;SDS011;3097;42.692;23.278;2024-02-28T10:43:28;23.93;;;14.63;;
6131;SDS011;3097;42.692;23.278;2024-02-28T10:45:57;21.97;;;14.40;;
6131;SDS011;3097;42.692;23.278;2024-02-28T10:48:24;25.33;;;15.60;;
6131;SDS011;3097;42.692;23.278;2024-02-28T10:50:50;25.57;;;14.90;;
6131;SDS011;3097;42.692;23.278;2024-02-28T10:53:20;22.50;;;14.47;;
6131;SDS011;3097;42.692;23.278;2024-02-28T10:55:49;18.53;;;13.40;;
6131;SDS011;3097;42.692;23.278;2024-02-28T10:58:14;21.47;;;13.23;;
6131;SDS011;3097;42.692;23.278;2024-02-28T11:00:41;23.33;;;13.60;;
6131;SDS011;3097;42.692;23.278;2024-02-28T11:03:12;23.17;;;14.50;;
6131;SDS011;3097;42.692;23.278;2024-02-28T11:05:41;24.17;;;14.07;;
6131;SDS011;3097;42.692;23.278;2024-02-28T11:08:11;21.63;;;13.60;;
6131;SDS011;3097;42.692;23.278;2024-02-28T11:10:42;22.93;;;14.07;;
6131;SDS011;3097;42.692;23.278;2024-02-28T11:13:09;31.20;;;17.17;;
6131;SDS011;3097;42.692;23.278;2024-02-28T11:15:36;23.10;;;14.30;;
6131;SDS011;3097;42.692;23.278;2024-02-28T11:18:08;19.83;;;11.43;;
6131;SDS011;3097;42.692;23.278;2024-02-28T11:20:34;14.10;;;9.97;;
6131;SDS011;3097;42.692;23.278;2024-02-28T11:23:00;11.97;;;8.80;;
6131;SDS011;3097;42.692;23.278;2024-02-28T11:25:26;13.87;;;8.00;;
6131;SDS011;3097;42.692;23.278;2024-02-28T11:27:52;17.20;;;9.13;;
6131;SDS011;3097;42.692;23.278;2024-02-28T11:30:17;15.47;;;8.50;;
6131;SDS011;3097;42.692;23.278;2024-02-28T11:32:43;13.90;;;9.17;;
6131;SDS011;3097;42.692;23.278;2024-02-28T11:35:09;12.17;;;7.77;;
6131;SDS011;3097;42.692;23.278;2024-02-28T11:37:40;12.87;;;9.00;;
6131;SDS011;3097;42.692;23.278;2024-02-28T11:40:07;11.47;;;7.53;;
6131;SDS011;3097;42.692;23.278;2024-02-28T11:42:35;10.43;;;7.97;;
6131;SDS011;3097;42.692;23.278;2024-02-28T11:45:00;10.83;;;7.83;;
6131;SDS011;3097;42.692;23.278;2024-02-28T11:47:31;10.27;;;7.63;;
6131;SDS011;3097;42.692;23.278;2024-02-28T11:49:58;15.10;;;8.20;;
6131;SDS011;3097;42.692;23.278;2024-02-28T11:52:26;10.90;;;7.70;;
6131;SDS011;3097;42.692;23.278;2024-02-28T11:54:51;13.13;;;8.03;;
6131;SDS011;3097;42.692;23.278;2024-02-28T11:57:17;12.43;;;8.20;;
6131;SDS011;3097;42.692;23.278;2024-02-28T11:59:44;17.17;;;8.93;;
6131;SDS011;3097;42.692;23.278;2024-02-28T12:02:13;7.93;;;6.63;;
6131;SDS011;3097;42.692;23.278;2024-02-28T12:04:40;10.13;;;7.10;;
6131;SDS011;3097;42.692;23.278;2024-02-28T12:07:07;14.10;;;6.50;;
6131;SDS011;3097;42.692;23.278;2024-02-28T12:09:33;10.70;;;7.17;;
6131;SDS011;3097;42.692;23.278;2024-02-28T12:12:02;7.57;;;6.80;;
6131;SDS011;3097;42.692;23.278;2024-02-28T12:14:32;19.13;;;7.20;;
6131;SDS011;3097;42.692;23.278;2024-02-28T12:17:01;9.87;;;7.67;;
6131;SDS011;3097;42.692;23.278;2024-02-28T12:19:28;10.03;;;7.60;;
6131;SDS011;3097;42.692;23.278;2024-02-28T12:21:54;10.67;;;7.77;;
6131;SDS011;3097;42.692;23.278;2024-02-28T12:24:19;8.67;;;7.23;;
6131;SDS011;3097;42.692;23.278;2024-02-28T12:26:46;12.70;;;8.33;;
6131;SDS011;3097;42.692;23.278;2024-02-28T12:29:11;11.80;;;8.53;;
6131;SDS011;3097;42.692;23.278;2024-02-28T12:31:37;12.13;;;7.50;;
6131;SDS011;3097;42.692;23.278;2024-02-28T12:34:03;10.90;;;7.77;;
6131;SDS011;3097;42.692;23.278;2024-02-28T12:36:29;9.63;;;7.13;;
6131;SDS011;3097;42.692;23.278;2024-02-28T12:38:56;8.67;;;7.23;;
6131;SDS011;3097;42.692;23.278;2024-02-28T12:41:23;6.60;;;6.00;;
6131;SDS011;3097;42.692;23.278;2024-02-28T12:43:49;11.13;;;7.33;;
6131;SDS011;3097;42.692;23.278;2024-02-28T12:46:15;11.93;;;7.70;;
6131;SDS011;3097;42.692;23.278;2024-02-28T12:48:40;8.77;;;6.87;;
6131;SDS011;3097;42.692;23.278;2024-02-28T12:51:08;7.77;;;7.03;;
6131;SDS011;3097;42.692;23.278;2024-02-28T12:53:35;10.60;;;7.00;;
6131;SDS011;3097;42.692;23.278;2024-02-28T12:56:01;9.17;;;6.53;;
6131;SDS011;3097;42.692;23.278;2024-02-28T12:58:27;9.63;;;6.97;;
6131;SDS011;3097;42.692;23.278;2024-02-28T13:00:52;13.77;;;7.90;;
6131;SDS011;3097;42.692;23.278;2024-02-28T13:03:18;12.77;;;7.50;;
6131;SDS011;3097;42.692;23.278;2024-02-28T13:05:44;8.97;;;6.60;;
6131;SDS011;3097;42.692;23.278;2024-02-28T13:08:10;10.00;;;6.77;;
6131;SDS011;3097;42.692;23.278;2024-02-28T13:10:35;8.73;;;6.63;;
6131;SDS011;3097;42.692;23.278;2024-02-28T13:13:04;9.63;;;6.73;;
6131;SDS011;3097;42.692;23.278;2024-02-28T13:15:31;8.23;;;7.13;;
6131;SDS011;3097;42.692;23.278;2024-02-28T13:17:57;10.87;;;7.10;;
6131;SDS011;3097;42.692;23.278;2024-02-28T13:20:22;31.33;;;17.63;;
6131;SDS011;3097;42.692;23.278;2024-02-28T13:22:48;10.30;;;7.80;;
6131;SDS011;3097;42.692;23.278;2024-02-28T13:25:13;8.70;;;7.23;;
6131;SDS011;3097;42.692;23.278;2024-02-28T13:27:40;10.50;;;8.10;;
6131;SDS011;3097;42.692;23.278;2024-02-28T13:30:06;11.33;;;8.83;;
6131;SDS011;3097;42.692;23.278;2024-02-28T13:32:32;10.00;;;8.30;;
6131;SDS011;3097;42.692;23.278;2024-02-28T13:34:58;13.33;;;8.33;;
6131;SDS011;3097;42.692;23.278;2024-02-28T13:37:24;14.80;;;8.27;;
6131;SDS011;3097;42.692;23.278;2024-02-28T13:39:50;11.87;;;8.07;;
6131;SDS011;3097;42.692;23.278;2024-02-28T13:42:17;11.20;;;8.67;;
6131;SDS011;3097;42.692;23.278;2024-02-28T13:44:45;13.57;;;8.03;;
6131;SDS011;3097;42.692;23.278;2024-02-28T13:47:11;15.13;;;8.33;;
6131;SDS011;3097;42.692;23.278;2024-02-28T13:49:40;10.37;;;8.07;;
6131;SDS011;3097;42.692;23.278;2024-02-28T13:52:05;9.80;;;7.53;;
6131;SDS011;3097;42.692;23.278;2024-02-28T13:54:31;9.93;;;7.60;;
6131;SDS011;3097;42.692;23.278;2024-02-28T13:56:57;12.40;;;7.27;;
6131;SDS011;3097;42.692;23.278;2024-02-28T13:59:23;9.60;;;7.57;;
6131;SDS011;3097;42.692;23.278;2024-02-28T14:01:49;9.83;;;7.23;;
6131;SDS011;3097;42.692;23.278;2024-02-28T14:04:15;11.07;;;7.50;;
6131;SDS011;3097;42.692;23.278;2024-02-28T14:06:40;11.50;;;7.70;;
6131;SDS011;3097;42.692;23.278;2024-02-28T14:09:06;9.77;;;7.23;;
6131;SDS011;3097;42.692;23.278;2024-02-28T14:11:31;11.03;;;7.37;;
6131;SDS011;3097;42.692;23.278;2024-02-28T14:13:57;10.03;;;6.80;;
6131;SDS011;3097;42.692;23.278;2024-02-28T14:16:23;11.80;;;7.60;;
6131;SDS011;3097;42.692;23.278;2024-02-28T14:18:49;10.80;;;7.70;;
6131;SDS011;3097;42.692;23.278;2024-02-28T14:21:16;10.23;;;7.37;;
6131;SDS011;3097;42.692;23.278;2024-02-28T14:23:42;12.17;;;8.70;;
6131;SDS011;3097;42.692;23.278;2024-02-28T14:26:07;12.53;;;8.60;;
6131;SDS011;3097;42.692;23.278;2024-02-28T14:28:33;15.40;;;8.90;;
6131;SDS011;3097;42.692;23.278;2024-02-28T14:30:59;11.97;;;8.40;;
6131;SDS011;3097;42.692;23.278;2024-02-28T14:33:24;13.63;;;9.03;;